sensor_id;sensor_type;location;lat;lon;timestamp;P1;durP1;ratioP1;P2;durP2;ratioP2
5754;SDS011;2902;42.130;24.732;2022-07-10T00:00:56;4.03;;;3.83;;
5754;SDS011;2902;42.130;24.732;2022-07-10T00:03:24;4.60;;;4.30;;
5754;SDS011;2902;42.130;24.732;2022-07-10T00:05:51;3.50;;;3.30;;
5754;SDS011;2902;42.130;24.732;2022-07-10T00:08:18;4.00;;;3.80;;
5754;SDS011;2902;42.130;24.732;2022-07-10T00:10:44;4.13;;;3.93;;
5754;SDS011;2902;42.130;24.732;2022-07-10T00:13:11;4.80;;;3.90;;
5754;SDS011;2902;42.130;24.732;2022-07-10T00:15:38;4.40;;;4.10;;
5754;SDS011;2902;42.130;24.732;2022-07-10T00:18:05;4.30;;;3.90;;
5754;SDS011;2902;42.130;24.732;2022-07-10T00:20:33;4.60;;;4.30;;
5754;SDS011;2902;42.130;24.732;2022-07-10T00:23:00;4.50;;;4.30;;
5754;SDS011;2902;42.130;24.732;2022-07-10T00:25:27;3.83;;;3.73;;
5754;SDS011;2902;42.130;24.732;2022-07-10T00:27:55;3.90;;;3.70;;
5754;SDS011;2902;42.130;24.732;2022-07-10T00:30:22;4.47;;;4.23;;
5754;SDS011;2902;42.130;24.732;2022-07-10T00:32:49;4.47;;;4.20;;
5754;SDS011;2902;42.130;24.732;2022-07-10T00:35:16;4.73;;;4.07;;
5754;SDS011;2902;42.130;24.732;2022-07-10T00:37:44;4.57;;;4.20;;
5754;SDS011;2902;42.130;24.732;2022-07-10T00:40:11;3.83;;;3.63;;
5754;SDS011;2902;42.130;24.732;2022-07-10T00:42:38;4.23;;;4.03;;
5754;SDS011;2902;42.130;24.732;2022-07-10T00:45:05;4.93;;;4.53;;
5754;SDS011;2902;42.130;24.732;2022-07-10T00:47:32;4.23;;;4.03;;
5754;SDS011;2902;42.130;24.732;2022-07-10T00:49:59;4.30;;;4.10;;
5754;SDS011;2902;42.130;24.732;2022-07-10T00:52:26;4.47;;;4.20;;
5754;SDS011;2902;42.130;24.732;2022-07-10T00:54:54;4.60;;;4.20;;
5754;SDS011;2902;42.130;24.732;2022-07-10T00:57:21;4.33;;;4.00;;
5754;SDS011;2902;42.130;24.732;2022-07-10T00:59:49;4.37;;;4.17;;
5754;SDS011;2902;42.130;24.732;2022-07-10T01:02:16;4.63;;;4.43;;
5754;SDS011;2902;42.130;24.732;2022-07-10T01:04:43;4.80;;;4.50;;
5754;SDS011;2902;42.130;24.732;2022-07-10T01:07:10;4.30;;;4.10;;
5754;SDS011;2902;42.130;24.732;2022-07-10T01:09:36;4.63;;;4.23;;
5754;SDS011;2902;42.130;24.732;2022-07-10T01:12:05;4.57;;;4.37;;
5754;SDS011;2902;42.130;24.732;2022-07-10T01:14:33;5.10;;;4.70;;
5754;SDS011;2902;42.130;24.732;2022-07-10T01:17:03;4.63;;;4.43;;
5754;SDS011;2902;42.130;24.732;2022-07-10T01:19:31;4.50;;;4.20;;
5754;SDS011;2902;42.130;24.732;2022-07-10T01:21:59;4.37;;;4.17;;
5754;SDS011;2902;42.130;24.732;2022-07-10T01:24:26;4.57;;;4.33;;
5754;SDS011;2902;42.130;24.732;2022-07-10T01:26:53;4.83;;;4.40;;
5754;SDS011;2902;42.130;24.732;2022-07-10T01:29:20;4.53;;;4.33;;
5754;SDS011;2902;42.130;24.732;2022-07-10T01:31:48;4.20;;;4.00;;
5754;SDS011;2902;42.130;24.732;2022-07-10T01:34:15;5.50;;;4.70;;
5754;SDS011;2902;42.130;24.732;2022-07-10T01:36:42;4.30;;;4.00;;
5754;SDS011;2902;42.130;24.732;2022-07-10T01:39:10;4.40;;;4.20;;
5754;SDS011;2902;42.130;24.732;2022-07-10T01:41:36;4.03;;;3.77;;
5754;SDS011;2902;42.130;24.732;2022-07-10T01:44:03;4.20;;;4.00;;
5754;SDS011;2902;42.130;24.732;2022-07-10T01:46:30;4.50;;;4.30;;
5754;SDS011;2902;42.130;24.732;2022-07-10T01:48:57;4.37;;;4.17;;
5754;SDS011;2902;42.130;24.732;2022-07-10T01:51:24;4.47;;;4.27;;
5754;SDS011;2902;42.130;24.732;2022-07-10T01:53:50;4.40;;;4.20;;
5754;SDS011;2902;42.130;24.732;2022-07-10T01:56:18;4.40;;;4.10;;
5754;SDS011;2902;42.130;24.732;2022-07-10T01:58:45;4.37;;;4.17;;
5754;SDS011;2902;42.130;24.732;2022-07-10T02:01:12;4.60;;;4.30;;
5754;SDS011;2902;42.130;24.732;2022-07-10T02:03:39;4.40;;;4.20;;
5754;SDS011;2902;42.130;24.732;2022-07-10T02:06:23;4.60;;;4.30;;
5754;SDS011;2902;42.130;24.732;2022-07-10T02:08:50;4.17;;;3.97;;
5754;SDS011;2902;42.130;24.732;2022-07-10T02:11:18;4.37;;;4.17;;
5754;SDS011;2902;42.130;24.732;2022-07-10T02:13:45;4.47;;;4.10;;
5754;SDS011;2902;42.130;24.732;2022-07-10T02:16:12;4.70;;;4.50;;
5754;SDS011;2902;42.130;24.732;2022-07-10T02:18:38;4.67;;;4.37;;
5754;SDS011;2902;42.130;24.732;2022-07-10T02:21:05;4.50;;;4.20;;
5754;SDS011;2902;42.130;24.732;2022-07-10T02:23:33;4.57;;;4.37;;
5754;SDS011;2902;42.130;24.732;2022-07-10T02:26:00;4.60;;;4.30;;
5754;SDS011;2902;42.130;24.732;2022-07-10T02:28:28;4.40;;;4.20;;
5754;SDS011;2902;42.130;24.732;2022-07-10T02:30:55;9.87;;;4.70;;
5754;SDS011;2902;42.130;24.732;2022-07-10T02:33:22;4.63;;;4.33;;
5754;SDS011;2902;42.130;24.732;2022-07-10T02:35:48;4.90;;;4.50;;
5754;SDS011;2902;42.130;24.732;2022-07-10T02:38:15;4.47;;;4.27;;
5754;SDS011;2902;42.130;24.732;2022-07-10T02:40:42;4.83;;;4.40;;
5754;SDS011;2902;42.130;24.732;2022-07-10T02:43:09;4.37;;;4.17;;
5754;SDS011;2902;42.130;24.732;2022-07-10T02:45:37;4.60;;;4.30;;
5754;SDS011;2902;42.130;24.732;2022-07-10T02:48:04;4.20;;;4.00;;
5754;SDS011;2902;42.130;24.732;2022-07-10T02:50:31;4.77;;;4.37;;
5754;SDS011;2902;42.130;24.732;2022-07-10T02:52:58;5.47;;;4.37;;
5754;SDS011;2902;42.130;24.732;2022-07-10T02:55:24;4.27;;;3.97;;
5754;SDS011;2902;42.130;24.732;2022-07-10T02:57:51;4.33;;;4.03;;
5754;SDS011;2902;42.130;24.732;2022-07-10T03:00:18;4.10;;;3.90;;
5754;SDS011;2902;42.130;24.732;2022-07-10T03:02:46;5.00;;;4.70;;
5754;SDS011;2902;42.130;24.732;2022-07-10T03:05:13;4.30;;;4.10;;
5754;SDS011;2902;42.130;24.732;2022-07-10T03:07:39;4.87;;;4.20;;
5754;SDS011;2902;42.130;24.732;2022-07-10T03:10:06;4.47;;;4.27;;
5754;SDS011;2902;42.130;24.732;2022-07-10T03:12:34;4.70;;;4.40;;
5754;SDS011;2902;42.130;24.732;2022-07-10T03:15:01;5.03;;;4.83;;
5754;SDS011;2902;42.130;24.732;2022-07-10T03:17:28;4.60;;;4.00;;
5754;SDS011;2902;42.130;24.732;2022-07-10T03:19:56;4.87;;;4.60;;
5754;SDS011;2902;42.130;24.732;2022-07-10T03:22:23;5.83;;;5.53;;
5754;SDS011;2902;42.130;24.732;2022-07-10T03:24:50;4.73;;;4.53;;
5754;SDS011;2902;42.130;24.732;2022-07-10T03:27:17;4.93;;;4.63;;
5754;SDS011;2902;42.130;24.732;2022-07-10T03:29:43;4.63;;;4.33;;
5754;SDS011;2902;42.130;24.732;2022-07-10T03:32:11;5.03;;;4.73;;
5754;SDS011;2902;42.130;24.732;2022-07-10T03:34:38;5.20;;;4.90;;
5754;SDS011;2902;42.130;24.732;2022-07-10T03:37:06;5.33;;;5.00;;
5754;SDS011;2902;42.130;24.732;2022-07-10T03:39:33;5.20;;;5.00;;
5754;SDS011;2902;42.130;24.732;2022-07-10T03:42:00;7.20;;;5.40;;
5754;SDS011;2902;42.130;24.732;2022-07-10T03:44:26;6.07;;;5.40;;
5754;SDS011;2902;42.130;24.732;2022-07-10T03:46:53;6.13;;;5.60;;
5754;SDS011;2902;42.130;24.732;2022-07-10T03:49:20;6.13;;;5.57;;
5754;SDS011;2902;42.130;24.732;2022-07-10T03:51:46;6.87;;;5.40;;
5754;SDS011;2902;42.130;24.732;2022-07-10T03:54:15;6.37;;;6.00;;
5754;SDS011;2902;42.130;24.732;2022-07-10T03:56:41;6.13;;;5.73;;
5754;SDS011;2902;42.130;24.732;2022-07-10T03:59:25;6.77;;;6.13;;
5754;SDS011;2902;42.130;24.732;2022-07-10T04:01:52;6.47;;;5.97;;
5754;SDS011;2902;42.130;24.732;2022-07-10T04:04:19;5.90;;;5.60;;
5754;SDS011;2902;42.130;24.732;2022-07-10T04:06:46;6.30;;;5.70;;
5754;SDS011;2902;42.130;24.732;2022-07-10T04:09:12;6.27;;;5.87;;
5754;SDS011;2902;42.130;24.732;2022-07-10T04:11:41;6.83;;;5.60;;
5754;SDS011;2902;42.130;24.732;2022-07-10T04:14:08;6.07;;;5.67;;
5754;SDS011;2902;42.130;24.732;2022-07-10T04:16:34;10.07;;;6.13;;
5754;SDS011;2902;42.130;24.732;2022-07-10T04:19:01;6.43;;;6.13;;
5754;SDS011;2902;42.130;24.732;2022-07-10T04:21:28;6.37;;;5.97;;
5754;SDS011;2902;42.130;24.732;2022-07-10T04:23:55;6.40;;;6.00;;
5754;SDS011;2902;42.130;24.732;2022-07-10T04:26:23;6.53;;;6.23;;
5754;SDS011;2902;42.130;24.732;2022-07-10T04:28:50;5.77;;;5.00;;
5754;SDS011;2902;42.130;24.732;2022-07-10T04:31:16;5.97;;;5.53;;
5754;SDS011;2902;42.130;24.732;2022-07-10T04:33:43;5.60;;;5.33;;
5754;SDS011;2902;42.130;24.732;2022-07-10T04:36:10;5.07;;;4.87;;
5754;SDS011;2902;42.130;24.732;2022-07-10T04:38:36;5.37;;;4.93;;
5754;SDS011;2902;42.130;24.732;2022-07-10T04:41:03;5.00;;;4.70;;
5754;SDS011;2902;42.130;24.732;2022-07-10T04:43:31;4.37;;;4.17;;
5754;SDS011;2902;42.130;24.732;2022-07-10T04:45:59;4.93;;;4.40;;
5754;SDS011;2902;42.130;24.732;2022-07-10T04:48:25;4.00;;;3.80;;
5754;SDS011;2902;42.130;24.732;2022-07-10T04:50:52;4.60;;;4.40;;
5754;SDS011;2902;42.130;24.732;2022-07-10T04:53:19;4.60;;;4.27;;
5754;SDS011;2902;42.130;24.732;2022-07-10T04:55:46;4.20;;;3.83;;
5754;SDS011;2902;42.130;24.732;2022-07-10T04:58:12;4.83;;;4.63;;
5754;SDS011;2902;42.130;24.732;2022-07-10T05:00:40;4.33;;;4.03;;
5754;SDS011;2902;42.130;24.732;2022-07-10T05:03:07;4.83;;;4.53;;
5754;SDS011;2902;42.130;24.732;2022-07-10T05:05:34;5.13;;;4.73;;
5754;SDS011;2902;42.130;24.732;2022-07-10T05:08:01;5.20;;;4.77;;
5754;SDS011;2902;42.130;24.732;2022-07-10T05:10:27;5.23;;;4.77;;
5754;SDS011;2902;42.130;24.732;2022-07-10T05:12:54;5.53;;;5.17;;
5754;SDS011;2902;42.130;24.732;2022-07-10T05:15:21;4.93;;;4.53;;
5754;SDS011;2902;42.130;24.732;2022-07-10T05:17:49;5.30;;;4.90;;
5754;SDS011;2902;42.130;24.732;2022-07-10T05:20:15;5.33;;;4.93;;
5754;SDS011;2902;42.130;24.732;2022-07-10T05:22:42;4.93;;;4.73;;
5754;SDS011;2902;42.130;24.732;2022-07-10T05:25:09;4.40;;;4.20;;
5754;SDS011;2902;42.130;24.732;2022-07-10T05:27:36;5.40;;;4.90;;
5754;SDS011;2902;42.130;24.732;2022-07-10T05:30:03;5.67;;;4.60;;
5754;SDS011;2902;42.130;24.732;2022-07-10T05:32:30;4.77;;;4.37;;
5754;SDS011;2902;42.130;24.732;2022-07-10T05:34:59;5.37;;;4.43;;
5754;SDS011;2902;42.130;24.732;2022-07-10T05:37:26;5.40;;;4.90;;
5754;SDS011;2902;42.130;24.732;2022-07-10T05:39:52;4.80;;;4.47;;
5754;SDS011;2902;42.130;24.732;2022-07-10T05:42:19;5.93;;;4.40;;
5754;SDS011;2902;42.130;24.732;2022-07-10T05:44:46;4.70;;;4.50;;
5754;SDS011;2902;42.130;24.732;2022-07-10T05:47:12;5.40;;;4.97;;
5754;SDS011;2902;42.130;24.732;2022-07-10T05:49:39;4.83;;;4.40;;
5754;SDS011;2902;42.130;24.732;2022-07-10T05:52:07;4.53;;;4.13;;
5754;SDS011;2902;42.130;24.732;2022-07-10T05:54:34;4.37;;;4.07;;
5754;SDS011;2902;42.130;24.732;2022-07-10T05:57:01;4.90;;;4.60;;
5754;SDS011;2902;42.130;24.732;2022-07-10T05:59:28;5.27;;;4.67;;
5754;SDS011;2902;42.130;24.732;2022-07-10T06:01:54;5.17;;;4.87;;
5754;SDS011;2902;42.130;24.732;2022-07-10T06:04:21;4.57;;;4.37;;
5754;SDS011;2902;42.130;24.732;2022-07-10T06:06:48;5.10;;;4.80;;
5754;SDS011;2902;42.130;24.732;2022-07-10T06:09:17;5.50;;;5.13;;
5754;SDS011;2902;42.130;24.732;2022-07-10T06:11:43;6.03;;;5.60;;
5754;SDS011;2902;42.130;24.732;2022-07-10T06:14:11;5.07;;;4.87;;
5754;SDS011;2902;42.130;24.732;2022-07-10T06:16:37;4.83;;;4.60;;
5754;SDS011;2902;42.130;24.732;2022-07-10T06:19:04;4.87;;;4.67;;
5754;SDS011;2902;42.130;24.732;2022-07-10T06:21:31;5.20;;;4.90;;
5754;SDS011;2902;42.130;24.732;2022-07-10T06:23:58;4.83;;;4.43;;
5754;SDS011;2902;42.130;24.732;2022-07-10T06:26:26;6.03;;;5.13;;
5754;SDS011;2902;42.130;24.732;2022-07-10T06:28:53;5.30;;;5.00;;
5754;SDS011;2902;42.130;24.732;2022-07-10T06:31:20;5.57;;;5.03;;
5754;SDS011;2902;42.130;24.732;2022-07-10T06:33:46;5.40;;;5.00;;
5754;SDS011;2902;42.130;24.732;2022-07-10T06:36:13;4.90;;;4.60;;
5754;SDS011;2902;42.130;24.732;2022-07-10T06:38:40;5.27;;;4.97;;
5754;SDS011;2902;42.130;24.732;2022-07-10T06:41:07;5.67;;;5.37;;
5754;SDS011;2902;42.130;24.732;2022-07-10T06:43:35;5.87;;;5.33;;
5754;SDS011;2902;42.130;24.732;2022-07-10T06:46:02;5.00;;;4.70;;
5754;SDS011;2902;42.130;24.732;2022-07-10T06:48:29;6.27;;;5.23;;
5754;SDS011;2902;42.130;24.732;2022-07-10T06:50:55;5.83;;;5.47;;
5754;SDS011;2902;42.130;24.732;2022-07-10T06:53:22;5.33;;;4.83;;
5754;SDS011;2902;42.130;24.732;2022-07-10T06:55:49;5.57;;;5.37;;
5754;SDS011;2902;42.130;24.732;2022-07-10T06:58:16;5.40;;;5.00;;
5754;SDS011;2902;42.130;24.732;2022-07-10T07:00:44;5.17;;;4.83;;
5754;SDS011;2902;42.130;24.732;2022-07-10T07:03:11;5.47;;;5.17;;
5754;SDS011;2902;42.130;24.732;2022-07-10T07:05:38;5.20;;;4.80;;
5754;SDS011;2902;42.130;24.732;2022-07-10T07:08:05;5.87;;;5.40;;
5754;SDS011;2902;42.130;24.732;2022-07-10T07:10:32;5.63;;;5.27;;
5754;SDS011;2902;42.130;24.732;2022-07-10T07:12:58;4.90;;;4.60;;
5754;SDS011;2902;42.130;24.732;2022-07-10T07:15:28;5.40;;;5.17;;
5754;SDS011;2902;42.130;24.732;2022-07-10T07:17:56;5.13;;;4.73;;
5754;SDS011;2902;42.130;24.732;2022-07-10T07:20:33;5.33;;;4.83;;
5754;SDS011;2902;42.130;24.732;2022-07-10T07:23:17;5.20;;;4.50;;
5754;SDS011;2902;42.130;24.732;2022-07-10T07:25:44;5.63;;;5.23;;
5754;SDS011;2902;42.130;24.732;2022-07-10T07:28:12;5.70;;;5.33;;
5754;SDS011;2902;42.130;24.732;2022-07-10T07:30:42;5.03;;;4.83;;
5754;SDS011;2902;42.130;24.732;2022-07-10T07:33:11;5.17;;;4.97;;
5754;SDS011;2902;42.130;24.732;2022-07-10T07:35:37;5.33;;;5.03;;
5754;SDS011;2902;42.130;24.732;2022-07-10T07:38:05;5.17;;;4.97;;
5754;SDS011;2902;42.130;24.732;2022-07-10T07:40:32;5.93;;;5.20;;
5754;SDS011;2902;42.130;24.732;2022-07-10T07:42:59;5.07;;;4.87;;
5754;SDS011;2902;42.130;24.732;2022-07-10T07:45:26;5.47;;;5.07;;
5754;SDS011;2902;42.130;24.732;2022-07-10T07:47:53;5.40;;;4.90;;
5754;SDS011;2902;42.130;24.732;2022-07-10T07:50:23;5.37;;;5.07;;
5754;SDS011;2902;42.130;24.732;2022-07-10T07:52:52;5.73;;;5.23;;
5754;SDS011;2902;42.130;24.732;2022-07-10T07:55:19;5.90;;;5.27;;
5754;SDS011;2902;42.130;24.732;2022-07-10T07:57:47;5.37;;;5.17;;
5754;SDS011;2902;42.130;24.732;2022-07-10T08:00:14;5.23;;;4.93;;
5754;SDS011;2902;42.130;24.732;2022-07-10T08:02:42;5.37;;;4.90;;
5754;SDS011;2902;42.130;24.732;2022-07-10T08:05:09;5.23;;;5.03;;
5754;SDS011;2902;42.130;24.732;2022-07-10T08:07:38;5.03;;;4.80;;
5754;SDS011;2902;42.130;24.732;2022-07-10T08:10:06;4.93;;;4.73;;
5754;SDS011;2902;42.130;24.732;2022-07-10T08:12:35;5.60;;;5.30;;
5754;SDS011;2902;42.130;24.732;2022-07-10T08:15:04;5.47;;;5.17;;
5754;SDS011;2902;42.130;24.732;2022-07-10T08:17:32;5.03;;;4.73;;
5754;SDS011;2902;42.130;24.732;2022-07-10T08:19:59;5.90;;;5.27;;
5754;SDS011;2902;42.130;24.732;2022-07-10T08:22:26;6.10;;;5.60;;
5754;SDS011;2902;42.130;24.732;2022-07-10T08:24:54;5.17;;;4.90;;
5754;SDS011;2902;42.130;24.732;2022-07-10T08:27:21;5.13;;;4.87;;
5754;SDS011;2902;42.130;24.732;2022-07-10T08:29:48;5.73;;;5.50;;
5754;SDS011;2902;42.130;24.732;2022-07-10T08:32:15;8.43;;;7.87;;
5754;SDS011;2902;42.130;24.732;2022-07-10T08:34:42;6.13;;;5.73;;
5754;SDS011;2902;42.130;24.732;2022-07-10T08:37:08;6.77;;;6.37;;
5754;SDS011;2902;42.130;24.732;2022-07-10T08:39:35;5.20;;;5.00;;
5754;SDS011;2902;42.130;24.732;2022-07-10T08:42:05;5.63;;;5.17;;
5754;SDS011;2902;42.130;24.732;2022-07-10T08:44:33;6.00;;;5.47;;
5754;SDS011;2902;42.130;24.732;2022-07-10T08:47:01;5.10;;;4.80;;
5754;SDS011;2902;42.130;24.732;2022-07-10T08:49:29;5.00;;;4.60;;
5754;SDS011;2902;42.130;24.732;2022-07-10T08:51:57;5.87;;;5.57;;
5754;SDS011;2902;42.130;24.732;2022-07-10T08:54:26;6.07;;;5.77;;
5754;SDS011;2902;42.130;24.732;2022-07-10T08:56:56;7.90;;;7.40;;
5754;SDS011;2902;42.130;24.732;2022-07-10T08:59:25;6.47;;;6.07;;
5754;SDS011;2902;42.130;24.732;2022-07-10T09:01:52;9.50;;;5.63;;
5754;SDS011;2902;42.130;24.732;2022-07-10T09:04:20;7.73;;;7.20;;
5754;SDS011;2902;42.130;24.732;2022-07-10T09:06:47;5.33;;;5.00;;
5754;SDS011;2902;42.130;24.732;2022-07-10T09:09:14;5.27;;;4.77;;
5754;SDS011;2902;42.130;24.732;2022-07-10T09:11:41;4.50;;;4.30;;
5754;SDS011;2902;42.130;24.732;2022-07-10T09:14:09;5.10;;;4.70;;
5754;SDS011;2902;42.130;24.732;2022-07-10T09:16:38;4.73;;;4.43;;
5754;SDS011;2902;42.130;24.732;2022-07-10T09:19:17;4.87;;;4.47;;
5754;SDS011;2902;42.130;24.732;2022-07-10T09:21:46;5.37;;;4.87;;
5754;SDS011;2902;42.130;24.732;2022-07-10T09:24:14;5.87;;;5.23;;
5754;SDS011;2902;42.130;24.732;2022-07-10T09:26:45;5.33;;;4.97;;
5754;SDS011;2902;42.130;24.732;2022-07-10T09:29:24;5.40;;;5.00;;
5754;SDS011;2902;42.130;24.732;2022-07-10T09:31:53;6.40;;;5.17;;
5754;SDS011;2902;42.130;24.732;2022-07-10T09:34:34;5.37;;;5.07;;
5754;SDS011;2902;42.130;24.732;2022-07-10T09:37:18;7.23;;;5.60;;
5754;SDS011;2902;42.130;24.732;2022-07-10T09:39:53;5.53;;;5.03;;
5754;SDS011;2902;42.130;24.732;2022-07-10T09:42:28;5.40;;;5.00;;
5754;SDS011;2902;42.130;24.732;2022-07-10T09:47:53;5.07;;;4.73;;
5754;SDS011;2902;42.130;24.732;2022-07-10T09:50:22;5.47;;;5.27;;
5754;SDS011;2902;42.130;24.732;2022-07-10T09:52:51;5.80;;;5.50;;
5754;SDS011;2902;42.130;24.732;2022-07-10T09:55:20;6.87;;;5.37;;
5754;SDS011;2902;42.130;24.732;2022-07-10T09:57:53;5.60;;;5.00;;
5754;SDS011;2902;42.130;24.732;2022-07-10T10:00:25;8.63;;;5.47;;
5754;SDS011;2902;42.130;24.732;2022-07-10T10:02:56;5.90;;;5.40;;
5754;SDS011;2902;42.130;24.732;2022-07-10T10:05:26;4.87;;;4.60;;
5754;SDS011;2902;42.130;24.732;2022-07-10T10:07:59;6.00;;;5.50;;
5754;SDS011;2902;42.130;24.732;2022-07-10T10:10:31;5.57;;;5.17;;
5754;SDS011;2902;42.130;24.732;2022-07-10T10:13:02;5.17;;;4.97;;
5754;SDS011;2902;42.130;24.732;2022-07-10T10:15:35;5.67;;;5.10;;
5754;SDS011;2902;42.130;24.732;2022-07-10T10:18:04;5.17;;;4.77;;
5754;SDS011;2902;42.130;24.732;2022-07-10T10:20:32;5.57;;;5.20;;
5754;SDS011;2902;42.130;24.732;2022-07-10T10:23:09;5.20;;;5.00;;
5754;SDS011;2902;42.130;24.732;2022-07-10T10:25:37;5.10;;;4.80;;
5754;SDS011;2902;42.130;24.732;2022-07-10T10:28:05;4.80;;;4.60;;
5754;SDS011;2902;42.130;24.732;2022-07-10T10:30:35;6.17;;;5.03;;
5754;SDS011;2902;42.130;24.732;2022-07-10T10:33:05;5.13;;;4.73;;
5754;SDS011;2902;42.130;24.732;2022-07-10T10:39:16;5.47;;;5.00;;
5754;SDS011;2902;42.130;24.732;2022-07-10T10:41:48;5.63;;;5.23;;
5754;SDS011;2902;42.130;24.732;2022-07-10T10:44:20;4.67;;;4.40;;
5754;SDS011;2902;42.130;24.732;2022-07-10T10:46:59;4.93;;;4.63;;
5754;SDS011;2902;42.130;24.732;2022-07-10T10:52:24;5.03;;;4.83;;
5754;SDS011;2902;42.130;24.732;2022-07-10T10:55:06;5.00;;;4.60;;
5754;SDS011;2902;42.130;24.732;2022-07-10T10:57:37;5.47;;;4.90;;
5754;SDS011;2902;42.130;24.732;2022-07-10T11:00:29;7.87;;;4.83;;
5754;SDS011;2902;42.130;24.732;2022-07-10T11:05:54;5.10;;;4.90;;
5754;SDS011;2902;42.130;24.732;2022-07-10T11:08:37;4.80;;;4.60;;
5754;SDS011;2902;42.130;24.732;2022-07-10T11:14:05;4.00;;;3.80;;
5754;SDS011;2902;42.130;24.732;2022-07-10T11:16:32;3.67;;;3.53;;
5754;SDS011;2902;42.130;24.732;2022-07-10T11:19:00;4.37;;;4.17;;
5754;SDS011;2902;42.130;24.732;2022-07-10T11:21:28;4.17;;;4.00;;
5754;SDS011;2902;42.130;24.732;2022-07-10T11:24:21;4.43;;;4.10;;
5754;SDS011;2902;42.130;24.732;2022-07-10T11:27:02;4.17;;;3.97;;
5754;SDS011;2902;42.130;24.732;2022-07-10T11:29:41;4.30;;;4.00;;
5754;SDS011;2902;42.130;24.732;2022-07-10T11:32:14;3.53;;;3.43;;
5754;SDS011;2902;42.130;24.732;2022-07-10T11:34:42;3.93;;;3.67;;
5754;SDS011;2902;42.130;24.732;2022-07-10T11:37:14;4.20;;;3.90;;
5754;SDS011;2902;42.130;24.732;2022-07-10T11:39:41;3.93;;;3.73;;
5754;SDS011;2902;42.130;24.732;2022-07-10T11:42:08;3.00;;;2.90;;
5754;SDS011;2902;42.130;24.732;2022-07-10T11:44:35;3.53;;;3.43;;
5754;SDS011;2902;42.130;24.732;2022-07-10T11:47:02;3.87;;;3.57;;
5754;SDS011;2902;42.130;24.732;2022-07-10T11:49:31;4.23;;;3.93;;
5754;SDS011;2902;42.130;24.732;2022-07-10T11:52:00;3.70;;;3.50;;
5754;SDS011;2902;42.130;24.732;2022-07-10T11:54:30;4.97;;;3.60;;
5754;SDS011;2902;42.130;24.732;2022-07-10T11:57:03;4.10;;;3.90;;
5754;SDS011;2902;42.130;24.732;2022-07-10T11:59:31;3.47;;;3.37;;
5754;SDS011;2902;42.130;24.732;2022-07-10T12:01:58;4.13;;;3.73;;
5754;SDS011;2902;42.130;24.732;2022-07-10T12:04:25;3.60;;;3.23;;
5754;SDS011;2902;42.130;24.732;2022-07-10T12:06:54;3.73;;;3.53;;
5754;SDS011;2902;42.130;24.732;2022-07-10T12:09:22;3.40;;;3.20;;
5754;SDS011;2902;42.130;24.732;2022-07-10T12:11:59;3.63;;;3.13;;
5754;SDS011;2902;42.130;24.732;2022-07-10T12:14:26;3.30;;;3.20;;
5754;SDS011;2902;42.130;24.732;2022-07-10T12:16:53;3.30;;;3.07;;
5754;SDS011;2902;42.130;24.732;2022-07-10T12:19:22;3.50;;;3.27;;
5754;SDS011;2902;42.130;24.732;2022-07-10T12:21:50;3.67;;;3.47;;
5754;SDS011;2902;42.130;24.732;2022-07-10T12:24:18;2.97;;;2.87;;
5754;SDS011;2902;42.130;24.732;2022-07-10T12:26:46;3.30;;;3.20;;
5754;SDS011;2902;42.130;24.732;2022-07-10T12:29:20;3.73;;;3.53;;
5754;SDS011;2902;42.130;24.732;2022-07-10T12:31:47;3.50;;;3.40;;
5754;SDS011;2902;42.130;24.732;2022-07-10T12:34:15;3.90;;;3.70;;
5754;SDS011;2902;42.130;24.732;2022-07-10T12:36:43;3.30;;;3.20;;
5754;SDS011;2902;42.130;24.732;2022-07-10T12:39:11;3.33;;;3.23;;
5754;SDS011;2902;42.130;24.732;2022-07-10T12:44:32;3.80;;;3.70;;
5754;SDS011;2902;42.130;24.732;2022-07-10T12:47:00;3.47;;;3.37;;
5754;SDS011;2902;42.130;24.732;2022-07-10T12:49:27;3.33;;;3.13;;
5754;SDS011;2902;42.130;24.732;2022-07-10T12:51:54;3.60;;;3.40;;
5754;SDS011;2902;42.130;24.732;2022-07-10T12:54:30;3.40;;;3.30;;
5754;SDS011;2902;42.130;24.732;2022-07-10T12:56:58;3.47;;;3.27;;
5754;SDS011;2902;42.130;24.732;2022-07-10T12:59:26;3.50;;;3.30;;
5754;SDS011;2902;42.130;24.732;2022-07-10T13:01:55;3.40;;;3.20;;
5754;SDS011;2902;42.130;24.732;2022-07-10T13:04:24;3.10;;;3.00;;
5754;SDS011;2902;42.130;24.732;2022-07-10T13:06:52;3.53;;;3.03;;
5754;SDS011;2902;42.130;24.732;2022-07-10T13:09:20;3.23;;;3.00;;
5754;SDS011;2902;42.130;24.732;2022-07-10T13:11:48;3.77;;;3.47;;
5754;SDS011;2902;42.130;24.732;2022-07-10T13:14:16;3.03;;;2.80;;
5754;SDS011;2902;42.130;24.732;2022-07-10T13:16:42;3.67;;;3.37;;
5754;SDS011;2902;42.130;24.732;2022-07-10T13:19:11;3.50;;;3.40;;
5754;SDS011;2902;42.130;24.732;2022-07-10T13:21:37;3.30;;;3.20;;
5754;SDS011;2902;42.130;24.732;2022-07-10T13:24:05;3.70;;;3.50;;
5754;SDS011;2902;42.130;24.732;2022-07-10T13:26:32;3.53;;;3.43;;
5754;SDS011;2902;42.130;24.732;2022-07-10T13:28:59;4.03;;;2.87;;
5754;SDS011;2902;42.130;24.732;2022-07-10T13:31:26;4.97;;;3.20;;
5754;SDS011;2902;42.130;24.732;2022-07-10T13:33:52;3.43;;;3.23;;
5754;SDS011;2902;42.130;24.732;2022-07-10T13:36:20;3.30;;;3.10;;
5754;SDS011;2902;42.130;24.732;2022-07-10T13:38:47;3.60;;;3.00;;
5754;SDS011;2902;42.130;24.732;2022-07-10T13:41:15;3.37;;;3.00;;
5754;SDS011;2902;42.130;24.732;2022-07-10T13:43:41;3.17;;;3.07;;
5754;SDS011;2902;42.130;24.732;2022-07-10T13:46:08;3.37;;;3.27;;
5754;SDS011;2902;42.130;24.732;2022-07-10T13:48:35;3.20;;;3.10;;
5754;SDS011;2902;42.130;24.732;2022-07-10T13:51:02;3.27;;;3.07;;
5754;SDS011;2902;42.130;24.732;2022-07-10T13:53:30;4.53;;;4.23;;
5754;SDS011;2902;42.130;24.732;2022-07-10T13:55:57;3.50;;;3.20;;
5754;SDS011;2902;42.130;24.732;2022-07-10T13:58:24;3.07;;;2.97;;
5754;SDS011;2902;42.130;24.732;2022-07-10T14:00:51;3.07;;;2.97;;
5754;SDS011;2902;42.130;24.732;2022-07-10T14:03:18;3.07;;;2.87;;
5754;SDS011;2902;42.130;24.732;2022-07-10T14:05:45;3.33;;;3.20;;
5754;SDS011;2902;42.130;24.732;2022-07-10T14:08:12;3.67;;;3.37;;
5754;SDS011;2902;42.130;24.732;2022-07-10T14:10:40;4.10;;;3.90;;
5754;SDS011;2902;42.130;24.732;2022-07-10T14:13:07;3.87;;;3.60;;
5754;SDS011;2902;42.130;24.732;2022-07-10T14:15:34;3.37;;;3.07;;
5754;SDS011;2902;42.130;24.732;2022-07-10T14:18:01;4.33;;;3.60;;
5754;SDS011;2902;42.130;24.732;2022-07-10T14:20:28;3.70;;;3.50;;
5754;SDS011;2902;42.130;24.732;2022-07-10T14:23:15;4.37;;;3.97;;
5754;SDS011;2902;42.130;24.732;2022-07-10T14:25:44;3.50;;;3.40;;
5754;SDS011;2902;42.130;24.732;2022-07-10T14:28:10;4.07;;;3.83;;
5754;SDS011;2902;42.130;24.732;2022-07-10T14:30:38;3.80;;;3.60;;
5754;SDS011;2902;42.130;24.732;2022-07-10T14:33:05;3.40;;;3.30;;
5754;SDS011;2902;42.130;24.732;2022-07-10T14:35:32;4.63;;;4.13;;
5754;SDS011;2902;42.130;24.732;2022-07-10T14:37:59;3.67;;;3.53;;
5754;SDS011;2902;42.130;24.732;2022-07-10T14:40:25;4.10;;;3.90;;
5754;SDS011;2902;42.130;24.732;2022-07-10T14:42:54;4.10;;;3.80;;
5754;SDS011;2902;42.130;24.732;2022-07-10T14:45:22;3.90;;;3.70;;
5754;SDS011;2902;42.130;24.732;2022-07-10T14:47:50;3.30;;;3.00;;
5754;SDS011;2902;42.130;24.732;2022-07-10T14:50:16;3.57;;;3.47;;
5754;SDS011;2902;42.130;24.732;2022-07-10T14:52:43;3.73;;;3.53;;
5754;SDS011;2902;42.130;24.732;2022-07-10T14:55:10;4.07;;;3.77;;
5754;SDS011;2902;42.130;24.732;2022-07-10T14:57:37;4.63;;;3.73;;
5754;SDS011;2902;42.130;24.732;2022-07-10T15:00:06;5.77;;;3.60;;
5754;SDS011;2902;42.130;24.732;2022-07-10T15:02:34;4.00;;;3.80;;
5754;SDS011;2902;42.130;24.732;2022-07-10T15:05:01;5.10;;;4.43;;
5754;SDS011;2902;42.130;24.732;2022-07-10T15:07:28;7.90;;;4.17;;
5754;SDS011;2902;42.130;24.732;2022-07-10T15:09:55;11.63;;;5.83;;
5754;SDS011;2902;42.130;24.732;2022-07-10T15:12:22;16.00;;;6.20;;
5754;SDS011;2902;42.130;24.732;2022-07-10T15:14:49;10.47;;;5.17;;
5754;SDS011;2902;42.130;24.732;2022-07-10T15:17:17;8.53;;;5.13;;
5754;SDS011;2902;42.130;24.732;2022-07-10T15:19:43;5.10;;;4.70;;
5754;SDS011;2902;42.130;24.732;2022-07-10T15:22:10;5.53;;;4.90;;
5754;SDS011;2902;42.130;24.732;2022-07-10T15:24:37;5.40;;;5.00;;